createdAt,value
2023-04-02T00:01:02.740Z,4.28
2023-04-02T00:03:45.075Z,4.35
2023-04-02T00:06:30.564Z,4.07
2023-04-02T00:09:01.386Z,2.45
2023-04-02T00:11:39.762Z,2.95
2023-04-02T00:14:25.875Z,4.93
2023-04-02T00:16:54.402Z,5.20
2023-04-02T00:19:35.699Z,1.60
2023-04-02T00:22:06.007Z,3.97
2023-04-02T00:24:33.722Z,3.17
2023-04-02T00:27:01.282Z,3.25
2023-04-02T00:29:28.254Z,2.30
2023-04-02T00:31:58.698Z,2.45
2023-04-02T00:34:38.028Z,3.92
2023-04-02T00:37:05.346Z,5.80
2023-04-02T00:39:39.788Z,3.95
2023-04-02T00:42:07.152Z,3.00
2023-04-02T00:44:38.934Z,5.22
2023-04-02T00:47:23.201Z,2.88
2023-04-02T00:50:14.569Z,3.53
2023-04-02T00:52:45.166Z,6.07
2023-04-02T00:55:30.607Z,4.18
2023-04-02T00:57:59.537Z,3.38
2023-04-02T01:00:36.281Z,4.93
2023-04-02T01:03:30.505Z,3.45
2023-04-02T01:06:19.275Z,6.38
2023-04-02T01:09:11.863Z,5.95
2023-04-02T01:11:59.821Z,6.53
2023-04-02T01:14:56.089Z,5.68
2023-04-02T01:17:30.679Z,4.75
2023-04-02T01:20:24.106Z,6.80
2023-04-02T01:25:58.742Z,5.10
2023-04-02T01:28:35.375Z,4.95
2023-04-02T01:31:03.650Z,7.60
2023-04-02T01:33:34.214Z,5.25
2023-04-02T01:36:17.850Z,5.07
2023-04-02T01:39:12.681Z,6.00
2023-04-02T01:41:43.756Z,5.10
2023-04-02T01:44:17.963Z,5.82
2023-04-02T01:46:49.200Z,6.13
2023-04-02T01:49:21.348Z,8.25
2023-04-02T01:51:55.244Z,5.38
2023-04-02T01:54:23.326Z,8.02
2023-04-02T01:56:51.514Z,7.78
2023-04-02T01:59:22.455Z,9.38
2023-04-02T02:01:59.083Z,9.18
2023-04-02T02:04:26.090Z,8.98
2023-04-02T02:06:53.258Z,5.90
2023-04-02T02:09:25.354Z,7.35
2023-04-02T02:11:53.395Z,6.47
2023-04-02T02:14:23.485Z,6.80
2023-04-02T02:16:53.861Z,7.40
2023-04-02T02:19:34.006Z,7.07
2023-04-02T02:22:14.782Z,6.15
2023-04-02T02:24:42.248Z,6.32
2023-04-02T02:27:24.381Z,6.13
2023-04-02T02:30:11.646Z,4.70
2023-04-02T02:32:47.871Z,6.57
2023-04-02T02:35:30.148Z,6.22
2023-04-02T02:38:06.587Z,9.10
2023-04-02T02:40:46.116Z,6.70
2023-04-02T02:43:15.137Z,7.18
2023-04-02T02:45:43.394Z,6.63
2023-04-02T02:48:14.076Z,7.15
2023-04-02T02:50:41.606Z,7.40
2023-04-02T02:53:24.461Z,7.63
2023-04-02T02:55:57.833Z,7.47
2023-04-02T02:58:31.354Z,9.70
2023-04-02T03:00:59.117Z,11.10
2023-04-02T03:03:33.032Z,12.40
2023-04-02T03:06:11.025Z,10.57
2023-04-02T03:08:38.449Z,9.60
2023-04-02T03:11:42.946Z,8.05
2023-04-02T03:14:31.511Z,8.73
2023-04-02T03:17:10.897Z,10.38
2023-04-02T03:20:11.098Z,11.63
2023-04-02T03:22:45.965Z,16.02
2023-04-02T03:25:21.346Z,12.07
2023-04-02T03:27:51.952Z,16.05
2023-04-02T03:30:37.132Z,13.00
2023-04-02T03:33:23.728Z,11.50
2023-04-02T03:35:59.919Z,10.20
2023-04-02T03:38:43.545Z,11.82
2023-04-02T03:41:15.851Z,7.18
2023-04-02T08:59:40.249Z,11.65
2023-04-02T09:02:07.478Z,10.63
2023-04-02T09:04:34.795Z,8.65
2023-04-02T09:07:02.031Z,8.93
2023-04-02T09:09:29.006Z,8.32
2023-04-02T09:12:01.326Z,7.70
2023-04-02T09:14:34.236Z,8.95
2023-04-02T09:19:40.339Z,6.88
2023-04-02T09:22:19.657Z,8.05
2023-04-02T11:45:21.160Z,8.50
2023-04-02T11:48:08.559Z,7.70
2023-04-02T11:50:37.340Z,19.23
2023-04-02T11:53:17.224Z,8.35
2023-04-02T11:56:06.400Z,7.82
2023-04-02T11:58:41.355Z,9.10
2023-04-02T12:01:34.215Z,9.15
2023-04-02T12:04:20.244Z,10.13
2023-04-02T12:07:17.615Z,5.60
2023-04-02T12:09:49.790Z,5.40
2023-04-02T12:12:38.018Z,10.68
2023-04-02T12:15:44.838Z,12.00
2023-04-02T12:18:20.029Z,8.63
2023-04-02T12:20:52.621Z,9.50
2023-04-02T12:23:23.216Z,10.95
2023-04-02T12:26:04.076Z,8.43
2023-04-02T12:28:34.080Z,7.10
2023-04-02T12:31:13.953Z,10.02
2023-04-02T12:33:42.025Z,10.77
2023-04-02T12:36:14.699Z,9.27
2023-04-02T12:38:54.658Z,8.10
2023-04-02T16:52:30.732Z,2.08
2023-04-02T16:55:35.300Z,1.92
2023-04-02T16:58:25.905Z,1.65
2023-04-02T17:01:01.319Z,2.53
2023-04-02T17:03:47.044Z,3.00
2023-04-02T17:06:26.746Z,3.75
2023-04-02T17:09:14.918Z,4.63
2023-04-02T17:11:43.683Z,7.38
2023-04-02T17:14:42.311Z,4.82
2023-04-02T17:17:13.162Z,4.30
2023-04-02T17:19:40.910Z,4.07
2023-04-02T17:22:16.817Z,5.95
2023-04-02T17:24:52.356Z,5.47
2023-04-02T17:27:19.398Z,7.93
2023-04-02T17:29:50.594Z,7.40
2023-04-02T17:32:24.103Z,4.88
2023-04-02T17:34:51.031Z,6.00
2023-04-02T17:48:25.832Z,3.17
2023-04-02T17:51:32.413Z,5.53
2023-04-02T17:54:28.003Z,5.63
2023-04-02T17:57:27.262Z,3.10
2023-04-02T18:00:17.079Z,5.00
2023-04-02T18:02:52.878Z,4.05
2023-04-02T18:05:46.339Z,2.88
2023-04-02T18:11:21.833Z,7.22
2023-04-02T18:13:59.746Z,2.40
2023-04-02T18:16:59.193Z,3.22
2023-04-02T18:19:45.079Z,4.40
2023-04-02T18:22:43.424Z,3.72
